sensor_id;sensor_type;location;lat;lon;timestamp;temperature;humidity
43697;DHT22;29301;47.620;19.560;2023-09-19T00:00:37;22.00;53.90
43697;DHT22;29301;47.620;19.560;2023-09-19T00:03:03;22.00;53.90
43697;DHT22;29301;47.620;19.560;2023-09-19T00:05:33;22.10;53.80
43697;DHT22;29301;47.620;19.560;2023-09-19T00:08:00;22.10;53.70
43697;DHT22;29301;47.620;19.560;2023-09-19T00:10:27;22.10;54.30
43697;DHT22;29301;47.620;19.560;2023-09-19T00:12:57;22.10;53.90
43697;DHT22;29301;47.620;19.560;2023-09-19T00:15:26;22.00;53.90
43697;DHT22;29301;47.620;19.560;2023-09-19T00:17:56;22.10;54.00
43697;DHT22;29301;47.620;19.560;2023-09-19T00:20:23;22.10;54.00
43697;DHT22;29301;47.620;19.560;2023-09-19T00:22:50;22.10;53.90
43697;DHT22;29301;47.620;19.560;2023-09-19T00:25:19;22.20;53.90
43697;DHT22;29301;47.620;19.560;2023-09-19T00:27:46;22.20;53.80
43697;DHT22;29301;47.620;19.560;2023-09-19T00:30:15;22.10;54.00
43697;DHT22;29301;47.620;19.560;2023-09-19T00:32:46;22.10;54.60
43697;DHT22;29301;47.620;19.560;2023-09-19T00:35:15;22.00;54.80
43697;DHT22;29301;47.620;19.560;2023-09-19T00:37:41;21.90;55.10
43697;DHT22;29301;47.620;19.560;2023-09-19T00:40:08;21.90;55.50
43697;DHT22;29301;47.620;19.560;2023-09-19T00:42:44;21.80;55.40
43697;DHT22;29301;47.620;19.560;2023-09-19T00:45:11;21.80;55.50
43697;DHT22;29301;47.620;19.560;2023-09-19T00:47:51;21.70;55.60
43697;DHT22;29301;47.620;19.560;2023-09-19T00:50:22;21.70;55.60
43697;DHT22;29301;47.620;19.560;2023-09-19T00:52:49;21.60;55.60
43697;DHT22;29301;47.620;19.560;2023-09-19T00:55:16;21.60;55.50
43697;DHT22;29301;47.620;19.560;2023-09-19T00:57:45;21.70;55.60
43697;DHT22;29301;47.620;19.560;2023-09-19T01:00:12;21.70;55.40
43697;DHT22;29301;47.620;19.560;2023-09-19T01:02:44;21.70;55.30
43697;DHT22;29301;47.620;19.560;2023-09-19T01:05:10;21.70;55.20
43697;DHT22;29301;47.620;19.560;2023-09-19T01:07:38;21.70;55.30
43697;DHT22;29301;47.620;19.560;2023-09-19T01:10:09;21.70;55.30
43697;DHT22;29301;47.620;19.560;2023-09-19T01:15:26;21.70;55.20
43697;DHT22;29301;47.620;19.560;2023-09-19T01:24:22;21.60;55.70
43697;DHT22;29301;47.620;19.560;2023-09-19T01:29:42;21.70;55.90
43697;DHT22;29301;47.620;19.560;2023-09-19T01:32:11;21.70;56.00
43697;DHT22;29301;47.620;19.560;2023-09-19T01:34:50;21.70;55.80
43697;DHT22;29301;47.620;19.560;2023-09-19T01:37:20;21.60;55.80
43697;DHT22;29301;47.620;19.560;2023-09-19T01:39:59;21.70;56.10
43697;DHT22;29301;47.620;19.560;2023-09-19T01:42:54;21.80;56.20
43697;DHT22;29301;47.620;19.560;2023-09-19T01:48:46;21.90;55.50
43697;DHT22;29301;47.620;19.560;2023-09-19T01:51:22;21.80;55.60
43697;DHT22;29301;47.620;19.560;2023-09-19T01:54:03;21.60;56.80
43697;DHT22;29301;47.620;19.560;2023-09-19T01:56:48;21.40;57.90
43697;DHT22;29301;47.620;19.560;2023-09-19T01:59:25;21.20;58.50
43697;DHT22;29301;47.620;19.560;2023-09-19T02:01:53;21.10;59.20
43697;DHT22;29301;47.620;19.560;2023-09-19T02:04:20;21.00;59.80
43697;DHT22;29301;47.620;19.560;2023-09-19T02:06:45;20.90;60.20
43697;DHT22;29301;47.620;19.560;2023-09-19T02:09:14;20.90;60.50
43697;DHT22;29301;47.620;19.560;2023-09-19T02:11:40;20.80;60.90
43697;DHT22;29301;47.620;19.560;2023-09-19T02:14:07;20.70;61.90
43697;DHT22;29301;47.620;19.560;2023-09-19T02:16:34;20.60;61.80
43697;DHT22;29301;47.620;19.560;2023-09-19T02:19:00;20.60;62.10
43697;DHT22;29301;47.620;19.560;2023-09-19T02:21:26;20.60;62.10
43697;DHT22;29301;47.620;19.560;2023-09-19T02:23:55;20.60;62.40
43697;DHT22;29301;47.620;19.560;2023-09-19T02:26:21;20.50;62.40
43697;DHT22;29301;47.620;19.560;2023-09-19T02:28:50;20.50;62.70
43697;DHT22;29301;47.620;19.560;2023-09-19T02:31:16;20.50;62.90
43697;DHT22;29301;47.620;19.560;2023-09-19T02:33:42;20.50;62.80
43697;DHT22;29301;47.620;19.560;2023-09-19T02:36:08;20.50;62.80
43697;DHT22;29301;47.620;19.560;2023-09-19T02:38:35;20.40;63.50
43697;DHT22;29301;47.620;19.560;2023-09-19T02:41:00;20.40;63.20
43697;DHT22;29301;47.620;19.560;2023-09-19T02:43:27;20.30;63.30
43697;DHT22;29301;47.620;19.560;2023-09-19T02:45:53;20.40;63.60
43697;DHT22;29301;47.620;19.560;2023-09-19T02:48:22;20.40;63.70
43697;DHT22;29301;47.620;19.560;2023-09-19T02:50:51;20.40;63.60
43697;DHT22;29301;47.620;19.560;2023-09-19T02:53:17;20.40;63.70
43697;DHT22;29301;47.620;19.560;2023-09-19T02:55:44;20.40;63.70
43697;DHT22;29301;47.620;19.560;2023-09-19T02:58:10;20.40;63.70
43697;DHT22;29301;47.620;19.560;2023-09-19T03:00:40;20.50;63.50
43697;DHT22;29301;47.620;19.560;2023-09-19T03:03:07;20.50;63.40
43697;DHT22;29301;47.620;19.560;2023-09-19T03:05:34;20.70;63.00
43697;DHT22;29301;47.620;19.560;2023-09-19T03:08:00;20.80;62.60
43697;DHT22;29301;47.620;19.560;2023-09-19T03:10:26;20.80;62.40
43697;DHT22;29301;47.620;19.560;2023-09-19T03:12:53;20.80;62.40
43697;DHT22;29301;47.620;19.560;2023-09-19T03:15:19;20.90;62.60
43697;DHT22;29301;47.620;19.560;2023-09-19T03:17:46;21.00;62.50
43697;DHT22;29301;47.620;19.560;2023-09-19T03:20:15;21.00;62.60
43697;DHT22;29301;47.620;19.560;2023-09-19T03:22:44;21.00;62.80
43697;DHT22;29301;47.620;19.560;2023-09-19T03:25:10;21.00;62.60
43697;DHT22;29301;47.620;19.560;2023-09-19T03:27:37;21.00;62.40
43697;DHT22;29301;47.620;19.560;2023-09-19T03:30:04;21.00;62.20
43697;DHT22;29301;47.620;19.560;2023-09-19T03:32:37;21.00;62.30
43697;DHT22;29301;47.620;19.560;2023-09-19T03:35:03;21.00;62.20
43697;DHT22;29301;47.620;19.560;2023-09-19T03:37:31;21.00;62.20
43697;DHT22;29301;47.620;19.560;2023-09-19T03:39:58;21.00;62.30
43697;DHT22;29301;47.620;19.560;2023-09-19T03:42:24;21.00;62.60
43697;DHT22;29301;47.620;19.560;2023-09-19T03:44:52;21.00;62.80
43697;DHT22;29301;47.620;19.560;2023-09-19T03:47:18;21.10;62.90
43697;DHT22;29301;47.620;19.560;2023-09-19T03:49:44;21.10;62.70
43697;DHT22;29301;47.620;19.560;2023-09-19T03:52:10;21.20;62.90
43697;DHT22;29301;47.620;19.560;2023-09-19T03:54:36;21.20;63.00
43697;DHT22;29301;47.620;19.560;2023-09-19T03:57:02;21.20;63.10
43697;DHT22;29301;47.620;19.560;2023-09-19T03:59:29;21.10;63.80
43697;DHT22;29301;47.620;19.560;2023-09-19T04:01:55;21.10;64.20
43697;DHT22;29301;47.620;19.560;2023-09-19T04:04:22;21.10;64.40
43697;DHT22;29301;47.620;19.560;2023-09-19T04:06:51;21.10;64.30
43697;DHT22;29301;47.620;19.560;2023-09-19T04:09:16;21.10;64.60
43697;DHT22;29301;47.620;19.560;2023-09-19T04:11:42;21.10;64.80
43697;DHT22;29301;47.620;19.560;2023-09-19T04:14:07;21.10;64.90
43697;DHT22;29301;47.620;19.560;2023-09-19T04:16:33;21.10;64.60
43697;DHT22;29301;47.620;19.560;2023-09-19T04:18:59;21.10;64.70
43697;DHT22;29301;47.620;19.560;2023-09-19T04:21:24;21.10;64.70
43697;DHT22;29301;47.620;19.560;2023-09-19T04:23:51;21.20;64.50
43697;DHT22;29301;47.620;19.560;2023-09-19T04:26:17;21.20;64.60
43697;DHT22;29301;47.620;19.560;2023-09-19T04:28:42;21.10;64.70
43697;DHT22;29301;47.620;19.560;2023-09-19T04:31:09;21.10;65.10
43697;DHT22;29301;47.620;19.560;2023-09-19T04:33:37;21.10;65.30
43697;DHT22;29301;47.620;19.560;2023-09-19T04:36:03;21.00;65.70
43697;DHT22;29301;47.620;19.560;2023-09-19T04:38:30;20.90;66.20
43697;DHT22;29301;47.620;19.560;2023-09-19T04:40:59;20.90;66.70
43697;DHT22;29301;47.620;19.560;2023-09-19T04:43:25;20.90;67.40
43697;DHT22;29301;47.620;19.560;2023-09-19T04:45:52;20.80;67.90
43697;DHT22;29301;47.620;19.560;2023-09-19T04:48:22;20.80;68.40
43697;DHT22;29301;47.620;19.560;2023-09-19T04:50:49;20.80;68.80
43697;DHT22;29301;47.620;19.560;2023-09-19T04:53:17;20.70;68.90
43697;DHT22;29301;47.620;19.560;2023-09-19T04:55:43;20.80;69.30
43697;DHT22;29301;47.620;19.560;2023-09-19T04:58:08;20.70;69.60
43697;DHT22;29301;47.620;19.560;2023-09-19T05:00:34;20.70;69.60
43697;DHT22;29301;47.620;19.560;2023-09-19T05:03:00;20.70;69.80
43697;DHT22;29301;47.620;19.560;2023-09-19T05:05:32;20.80;69.90
43697;DHT22;29301;47.620;19.560;2023-09-19T05:07:59;20.80;70.30
43697;DHT22;29301;47.620;19.560;2023-09-19T05:10:24;20.80;69.90
43697;DHT22;29301;47.620;19.560;2023-09-19T05:12:53;20.80;70.10
43697;DHT22;29301;47.620;19.560;2023-09-19T05:15:19;20.80;70.50
43697;DHT22;29301;47.620;19.560;2023-09-19T05:17:49;20.80;70.70
43697;DHT22;29301;47.620;19.560;2023-09-19T05:20:21;20.80;70.80
43697;DHT22;29301;47.620;19.560;2023-09-19T05:23:05;20.80;71.20
43697;DHT22;29301;47.620;19.560;2023-09-19T05:25:38;20.90;71.60
43697;DHT22;29301;47.620;19.560;2023-09-19T05:28:08;20.90;71.90
43697;DHT22;29301;47.620;19.560;2023-09-19T05:30:35;20.90;72.20
43697;DHT22;29301;47.620;19.560;2023-09-19T05:33:02;20.90;72.40
43697;DHT22;29301;47.620;19.560;2023-09-19T05:35:29;20.90;72.60
43697;DHT22;29301;47.620;19.560;2023-09-19T05:37:55;20.90;72.60
43697;DHT22;29301;47.620;19.560;2023-09-19T05:40:21;21.00;73.00
43697;DHT22;29301;47.620;19.560;2023-09-19T05:42:47;21.00;73.10
43697;DHT22;29301;47.620;19.560;2023-09-19T05:45:13;21.00;73.50
43697;DHT22;29301;47.620;19.560;2023-09-19T05:47:40;21.00;73.70
43697;DHT22;29301;47.620;19.560;2023-09-19T05:50:11;21.00;73.90
43697;DHT22;29301;47.620;19.560;2023-09-19T05:52:38;21.10;73.70
43697;DHT22;29301;47.620;19.560;2023-09-19T05:55:05;21.20;73.50
43697;DHT22;29301;47.620;19.560;2023-09-19T05:57:32;21.20;72.80
43697;DHT22;29301;47.620;19.560;2023-09-19T05:59:58;21.40;72.30
43697;DHT22;29301;47.620;19.560;2023-09-19T06:02:24;21.50;72.00
43697;DHT22;29301;47.620;19.560;2023-09-19T06:04:52;21.50;71.30
43697;DHT22;29301;47.620;19.560;2023-09-19T06:07:18;21.60;72.30
43697;DHT22;29301;47.620;19.560;2023-09-19T06:09:44;21.50;72.00
43697;DHT22;29301;47.620;19.560;2023-09-19T06:12:09;21.50;72.10
43697;DHT22;29301;47.620;19.560;2023-09-19T06:14:39;21.50;72.00
43697;DHT22;29301;47.620;19.560;2023-09-19T06:17:05;21.50;71.60
43697;DHT22;29301;47.620;19.560;2023-09-19T06:19:32;21.50;71.50
43697;DHT22;29301;47.620;19.560;2023-09-19T06:21:58;21.50;71.40
43697;DHT22;29301;47.620;19.560;2023-09-19T06:24:25;21.50;71.70
43697;DHT22;29301;47.620;19.560;2023-09-19T06:26:51;21.40;71.70
43697;DHT22;29301;47.620;19.560;2023-09-19T06:29:18;21.50;72.00
43697;DHT22;29301;47.620;19.560;2023-09-19T06:31:46;21.40;72.00
43697;DHT22;29301;47.620;19.560;2023-09-19T06:34:12;21.40;72.60
43697;DHT22;29301;47.620;19.560;2023-09-19T06:36:41;21.40;73.00
43697;DHT22;29301;47.620;19.560;2023-09-19T06:39:07;21.40;73.10
43697;DHT22;29301;47.620;19.560;2023-09-19T06:41:37;21.40;72.90
43697;DHT22;29301;47.620;19.560;2023-09-19T06:44:04;21.40;72.70
43697;DHT22;29301;47.620;19.560;2023-09-19T06:46:30;21.30;72.80
43697;DHT22;29301;47.620;19.560;2023-09-19T06:49:00;21.20;73.10
43697;DHT22;29301;47.620;19.560;2023-09-19T06:51:28;21.20;73.00
43697;DHT22;29301;47.620;19.560;2023-09-19T06:53:55;21.20;73.40
43697;DHT22;29301;47.620;19.560;2023-09-19T06:56:22;21.20;73.00
43697;DHT22;29301;47.620;19.560;2023-09-19T06:58:48;21.20;73.10
43697;DHT22;29301;47.620;19.560;2023-09-19T07:01:14;21.20;73.20
43697;DHT22;29301;47.620;19.560;2023-09-19T07:03:40;21.20;73.60
43697;DHT22;29301;47.620;19.560;2023-09-19T07:06:06;21.10;74.00
43697;DHT22;29301;47.620;19.560;2023-09-19T07:08:32;21.00;74.60
43697;DHT22;29301;47.620;19.560;2023-09-19T07:10:58;21.00;75.40
43697;DHT22;29301;47.620;19.560;2023-09-19T07:13:23;20.90;75.60
43697;DHT22;29301;47.620;19.560;2023-09-19T07:15:50;20.90;76.10
43697;DHT22;29301;47.620;19.560;2023-09-19T07:18:19;20.80;76.30
43697;DHT22;29301;47.620;19.560;2023-09-19T07:20:45;20.90;76.30
43697;DHT22;29301;47.620;19.560;2023-09-19T07:23:18;20.90;76.00
43697;DHT22;29301;47.620;19.560;2023-09-19T07:25:48;20.80;76.50
43697;DHT22;29301;47.620;19.560;2023-09-19T07:28:14;20.80;77.10
43697;DHT22;29301;47.620;19.560;2023-09-19T07:30:40;20.80;77.70
43697;DHT22;29301;47.620;19.560;2023-09-19T07:33:07;20.80;78.70
43697;DHT22;29301;47.620;19.560;2023-09-19T07:35:33;20.80;79.60
43697;DHT22;29301;47.620;19.560;2023-09-19T07:37:59;20.80;79.40
43697;DHT22;29301;47.620;19.560;2023-09-19T07:40:27;20.80;79.20
43697;DHT22;29301;47.620;19.560;2023-09-19T07:42:57;20.80;80.10
43697;DHT22;29301;47.620;19.560;2023-09-19T07:45:30;20.60;80.50
43697;DHT22;29301;47.620;19.560;2023-09-19T07:47:56;20.60;81.90
43697;DHT22;29301;47.620;19.560;2023-09-19T07:50:21;20.50;82.00
43697;DHT22;29301;47.620;19.560;2023-09-19T07:52:48;20.60;81.80
43697;DHT22;29301;47.620;19.560;2023-09-19T07:55:16;20.60;81.50
43697;DHT22;29301;47.620;19.560;2023-09-19T07:57:45;20.70;81.40
43697;DHT22;29301;47.620;19.560;2023-09-19T08:00:12;20.70;82.90
43697;DHT22;29301;47.620;19.560;2023-09-19T08:02:39;20.60;83.20
43697;DHT22;29301;47.620;19.560;2023-09-19T08:05:06;20.50;85.30
43697;DHT22;29301;47.620;19.560;2023-09-19T08:07:36;20.30;88.00
43697;DHT22;29301;47.620;19.560;2023-09-19T08:10:02;20.30;90.30
43697;DHT22;29301;47.620;19.560;2023-09-19T08:12:29;20.30;91.00
43697;DHT22;29301;47.620;19.560;2023-09-19T08:14:55;20.20;91.30
43697;DHT22;29301;47.620;19.560;2023-09-19T08:17:21;20.10;92.40
43697;DHT22;29301;47.620;19.560;2023-09-19T08:19:48;20.10;93.40
43697;DHT22;29301;47.620;19.560;2023-09-19T08:22:19;20.10;93.70
43697;DHT22;29301;47.620;19.560;2023-09-19T08:24:45;20.20;94.00
43697;DHT22;29301;47.620;19.560;2023-09-19T08:27:11;20.30;93.10
43697;DHT22;29301;47.620;19.560;2023-09-19T08:29:38;20.20;92.60
43697;DHT22;29301;47.620;19.560;2023-09-19T08:32:04;20.20;92.60
43697;DHT22;29301;47.620;19.560;2023-09-19T08:34:30;20.30;92.60
43697;DHT22;29301;47.620;19.560;2023-09-19T08:36:59;20.30;91.70
43697;DHT22;29301;47.620;19.560;2023-09-19T08:39:25;20.40;92.00
43697;DHT22;29301;47.620;19.560;2023-09-19T08:41:58;20.40;92.50
43697;DHT22;29301;47.620;19.560;2023-09-19T08:44:27;20.40;92.20
43697;DHT22;29301;47.620;19.560;2023-09-19T08:47:08;20.40;92.10
43697;DHT22;29301;47.620;19.560;2023-09-19T08:52:09;20.20;92.30
43697;DHT22;29301;47.620;19.560;2023-09-19T08:54:38;20.20;92.20
43697;DHT22;29301;47.620;19.560;2023-09-19T08:57:07;20.20;91.90
43697;DHT22;29301;47.620;19.560;2023-09-19T08:59:41;20.20;92.50
43697;DHT22;29301;47.620;19.560;2023-09-19T09:02:12;20.20;91.90
43697;DHT22;29301;47.620;19.560;2023-09-19T09:04:40;20.20;91.50
43697;DHT22;29301;47.620;19.560;2023-09-19T09:07:14;20.10;90.70
43697;DHT22;29301;47.620;19.560;2023-09-19T09:09:40;20.20;90.20
43697;DHT22;29301;47.620;19.560;2023-09-19T09:12:12;20.20;90.00
43697;DHT22;29301;47.620;19.560;2023-09-19T09:14:47;20.30;90.40
43697;DHT22;29301;47.620;19.560;2023-09-19T09:17:15;20.20;90.00
43697;DHT22;29301;47.620;19.560;2023-09-19T09:19:54;20.20;90.00
43697;DHT22;29301;47.620;19.560;2023-09-19T09:22:20;20.20;90.30
43697;DHT22;29301;47.620;19.560;2023-09-19T09:24:57;20.10;90.00
43697;DHT22;29301;47.620;19.560;2023-09-19T09:27:31;20.20;90.20
43697;DHT22;29301;47.620;19.560;2023-09-19T09:29:59;20.20;90.20
43697;DHT22;29301;47.620;19.560;2023-09-19T09:32:26;20.20;89.80
43697;DHT22;29301;47.620;19.560;2023-09-19T09:34:59;20.20;89.00
43697;DHT22;29301;47.620;19.560;2023-09-19T09:37:25;20.30;88.60
43697;DHT22;29301;47.620;19.560;2023-09-19T09:39:59;20.30;88.80
43697;DHT22;29301;47.620;19.560;2023-09-19T09:42:44;20.30;89.10
43697;DHT22;29301;47.620;19.560;2023-09-19T09:45:23;20.30;90.10
43697;DHT22;29301;47.620;19.560;2023-09-19T09:47:58;20.40;90.40
43697;DHT22;29301;47.620;19.560;2023-09-19T09:50:30;20.40;89.90
43697;DHT22;29301;47.620;19.560;2023-09-19T09:53:27;20.50;89.80
43697;DHT22;29301;47.620;19.560;2023-09-19T09:58:28;20.60;89.60
43697;DHT22;29301;47.620;19.560;2023-09-19T10:00:58;20.70;89.30
43697;DHT22;29301;47.620;19.560;2023-09-19T10:03:38;20.80;88.70
43697;DHT22;29301;47.620;19.560;2023-09-19T10:06:10;21.00;88.00
43697;DHT22;29301;47.620;19.560;2023-09-19T10:09:05;21.10;86.10
43697;DHT22;29301;47.620;19.560;2023-09-19T10:11:49;21.20;85.10
43697;DHT22;29301;47.620;19.560;2023-09-19T10:14:28;21.40;84.40
43697;DHT22;29301;47.620;19.560;2023-09-19T10:16:57;21.50;83.10
43697;DHT22;29301;47.620;19.560;2023-09-19T10:22:11;21.50;82.00
43697;DHT22;29301;47.620;19.560;2023-09-19T10:24:39;21.40;82.30
43697;DHT22;29301;47.620;19.560;2023-09-19T10:27:06;21.40;85.70
43697;DHT22;29301;47.620;19.560;2023-09-19T10:29:39;21.40;85.40
43697;DHT22;29301;47.620;19.560;2023-09-19T10:32:06;21.40;87.20
43697;DHT22;29301;47.620;19.560;2023-09-19T10:34:36;21.40;88.10
43697;DHT22;29301;47.620;19.560;2023-09-19T10:37:02;21.30;85.30
43697;DHT22;29301;47.620;19.560;2023-09-19T10:39:32;21.30;84.30
43697;DHT22;29301;47.620;19.560;2023-09-19T10:42:02;21.30;84.40
43697;DHT22;29301;47.620;19.560;2023-09-19T10:44:32;21.40;83.70
43697;DHT22;29301;47.620;19.560;2023-09-19T10:46:58;21.40;82.70
43697;DHT22;29301;47.620;19.560;2023-09-19T10:49:25;21.40;81.70
43697;DHT22;29301;47.620;19.560;2023-09-19T10:51:55;21.50;81.10
43697;DHT22;29301;47.620;19.560;2023-09-19T10:54:27;21.50;78.90
43697;DHT22;29301;47.620;19.560;2023-09-19T10:56:55;21.50;80.20
43697;DHT22;29301;47.620;19.560;2023-09-19T10:59:24;21.50;78.40
43697;DHT22;29301;47.620;19.560;2023-09-19T11:01:55;21.50;78.30
43697;DHT22;29301;47.620;19.560;2023-09-19T11:04:34;21.50;78.80
43697;DHT22;29301;47.620;19.560;2023-09-19T11:07:13;21.60;78.00
43697;DHT22;29301;47.620;19.560;2023-09-19T11:14:54;21.80;75.80
43697;DHT22;29301;47.620;19.560;2023-09-19T11:30:35;21.60;73.30
43697;DHT22;29301;47.620;19.560;2023-09-19T11:33:29;21.50;72.20
43697;DHT22;29301;47.620;19.560;2023-09-19T11:35:59;21.50;71.90
43697;DHT22;29301;47.620;19.560;2023-09-19T11:49:26;22.10;70.30
43697;DHT22;29301;47.620;19.560;2023-09-19T11:51:55;22.10;70.40
43697;DHT22;29301;47.620;19.560;2023-09-19T11:54:23;22.10;68.50
43697;DHT22;29301;47.620;19.560;2023-09-19T11:56:51;22.10;68.40
43697;DHT22;29301;47.620;19.560;2023-09-19T11:59:21;22.20;69.70
43697;DHT22;29301;47.620;19.560;2023-09-19T12:02:06;22.30;69.50
43697;DHT22;29301;47.620;19.560;2023-09-19T12:04:42;22.50;68.80
43697;DHT22;29301;47.620;19.560;2023-09-19T12:07:13;22.60;67.90
43697;DHT22;29301;47.620;19.560;2023-09-19T12:09:47;22.60;64.90
43697;DHT22;29301;47.620;19.560;2023-09-19T12:12:20;22.60;64.70
43697;DHT22;29301;47.620;19.560;2023-09-19T12:14:49;22.60;64.30
43697;DHT22;29301;47.620;19.560;2023-09-19T12:17:16;22.70;64.90
43697;DHT22;29301;47.620;19.560;2023-09-19T12:19:53;22.90;63.90
43697;DHT22;29301;47.620;19.560;2023-09-19T12:22:19;22.90;62.40
43697;DHT22;29301;47.620;19.560;2023-09-19T12:24:48;23.00;61.50
43697;DHT22;29301;47.620;19.560;2023-09-19T12:27:16;23.20;59.80
43697;DHT22;29301;47.620;19.560;2023-09-19T12:29:49;23.20;58.70
43697;DHT22;29301;47.620;19.560;2023-09-19T12:32:15;23.20;57.60
43697;DHT22;29301;47.620;19.560;2023-09-19T12:34:52;23.20;56.00
43697;DHT22;29301;47.620;19.560;2023-09-19T12:37:20;23.10;56.50
43697;DHT22;29301;47.620;19.560;2023-09-19T12:39:53;23.10;56.60
43697;DHT22;29301;47.620;19.560;2023-09-19T12:42:40;23.30;57.40
43697;DHT22;29301;47.620;19.560;2023-09-19T12:45:07;23.40;56.80
43697;DHT22;29301;47.620;19.560;2023-09-19T12:47:34;23.50;56.10
43697;DHT22;29301;47.620;19.560;2023-09-19T12:50:12;23.50;55.60
43697;DHT22;29301;47.620;19.560;2023-09-19T12:52:40;23.50;54.30
43697;DHT22;29301;47.620;19.560;2023-09-19T12:55:06;23.30;54.20
43697;DHT22;29301;47.620;19.560;2023-09-19T12:57:36;23.30;55.40
43697;DHT22;29301;47.620;19.560;2023-09-19T13:00:03;23.30;55.40
43697;DHT22;29301;47.620;19.560;2023-09-19T13:02:31;23.30;55.70
43697;DHT22;29301;47.620;19.560;2023-09-19T13:04:58;23.40;55.80
43697;DHT22;29301;47.620;19.560;2023-09-19T13:07:45;23.50;56.60
43697;DHT22;29301;47.620;19.560;2023-09-19T13:10:13;23.70;55.90
43697;DHT22;29301;47.620;19.560;2023-09-19T13:12:43;23.70;55.10
43697;DHT22;29301;47.620;19.560;2023-09-19T13:15:14;23.80;55.20
43697;DHT22;29301;47.620;19.560;2023-09-19T13:17:45;23.80;54.50
43697;DHT22;29301;47.620;19.560;2023-09-19T13:20:27;23.80;54.30
43697;DHT22;29301;47.620;19.560;2023-09-19T13:22:53;23.90;54.50
43697;DHT22;29301;47.620;19.560;2023-09-19T13:25:23;23.90;53.50
43697;DHT22;29301;47.620;19.560;2023-09-19T13:27:50;23.90;52.90
43697;DHT22;29301;47.620;19.560;2023-09-19T13:30:18;23.90;52.30
43697;DHT22;29301;47.620;19.560;2023-09-19T13:32:44;24.00;52.80
43697;DHT22;29301;47.620;19.560;2023-09-19T13:35:10;23.90;51.60
43697;DHT22;29301;47.620;19.560;2023-09-19T13:37:38;23.90;52.10
43697;DHT22;29301;47.620;19.560;2023-09-19T13:40:10;23.80;52.60
43697;DHT22;29301;47.620;19.560;2023-09-19T13:42:37;23.90;52.40
43697;DHT22;29301;47.620;19.560;2023-09-19T13:45:06;23.90;52.70
43697;DHT22;29301;47.620;19.560;2023-09-19T13:47:36;23.90;51.40
43697;DHT22;29301;47.620;19.560;2023-09-19T13:50:04;23.90;52.30
43697;DHT22;29301;47.620;19.560;2023-09-19T13:52:31;24.00;52.00
43697;DHT22;29301;47.620;19.560;2023-09-19T13:54:57;23.90;51.80
43697;DHT22;29301;47.620;19.560;2023-09-19T13:57:24;23.80;51.80
43697;DHT22;29301;47.620;19.560;2023-09-19T13:59:51;23.80;52.20
43697;DHT22;29301;47.620;19.560;2023-09-19T14:02:17;23.80;52.80
43697;DHT22;29301;47.620;19.560;2023-09-19T14:04:48;23.70;52.70
43697;DHT22;29301;47.620;19.560;2023-09-19T14:07:15;23.70;52.80
43697;DHT22;29301;47.620;19.560;2023-09-19T14:09:41;23.60;53.10
43697;DHT22;29301;47.620;19.560;2023-09-19T14:12:06;23.50;53.90
43697;DHT22;29301;47.620;19.560;2023-09-19T14:14:32;23.50;54.50
43697;DHT22;29301;47.620;19.560;2023-09-19T14:16:58;23.50;55.00
43697;DHT22;29301;47.620;19.560;2023-09-19T14:19:27;23.60;55.40
43697;DHT22;29301;47.620;19.560;2023-09-19T14:21:52;23.70;54.90
43697;DHT22;29301;47.620;19.560;2023-09-19T14:24:21;23.80;54.30
43697;DHT22;29301;47.620;19.560;2023-09-19T14:26:48;23.80;54.60
43697;DHT22;29301;47.620;19.560;2023-09-19T14:29:15;23.80;54.70
43697;DHT22;29301;47.620;19.560;2023-09-19T14:31:41;23.90;54.60
43697;DHT22;29301;47.620;19.560;2023-09-19T14:34:07;24.00;54.80
43697;DHT22;29301;47.620;19.560;2023-09-19T14:36:35;24.00;53.90
43697;DHT22;29301;47.620;19.560;2023-09-19T14:39:01;24.00;52.40
43697;DHT22;29301;47.620;19.560;2023-09-19T14:41:27;24.10;51.80
43697;DHT22;29301;47.620;19.560;2023-09-19T14:43:53;24.10;52.10
43697;DHT22;29301;47.620;19.560;2023-09-19T14:46:21;24.00;51.50
43697;DHT22;29301;47.620;19.560;2023-09-19T14:48:47;24.00;51.20
43697;DHT22;29301;47.620;19.560;2023-09-19T14:51:13;24.00;51.10
43697;DHT22;29301;47.620;19.560;2023-09-19T14:53:40;24.00;51.40
43697;DHT22;29301;47.620;19.560;2023-09-19T14:56:10;24.00;51.50
43697;DHT22;29301;47.620;19.560;2023-09-19T14:58:37;23.90;51.40
43697;DHT22;29301;47.620;19.560;2023-09-19T15:01:09;23.90;51.50
43697;DHT22;29301;47.620;19.560;2023-09-19T15:03:40;23.90;51.70
43697;DHT22;29301;47.620;19.560;2023-09-19T15:06:11;23.90;52.00
43697;DHT22;29301;47.620;19.560;2023-09-19T15:08:46;23.90;51.60
43697;DHT22;29301;47.620;19.560;2023-09-19T15:11:21;23.90;51.80
43697;DHT22;29301;47.620;19.560;2023-09-19T15:13:50;23.90;51.60
43697;DHT22;29301;47.620;19.560;2023-09-19T15:16:16;23.90;51.50
43697;DHT22;29301;47.620;19.560;2023-09-19T15:18:44;23.80;51.60
43697;DHT22;29301;47.620;19.560;2023-09-19T15:21:11;23.80;51.20
43697;DHT22;29301;47.620;19.560;2023-09-19T15:23:38;23.80;51.00
43697;DHT22;29301;47.620;19.560;2023-09-19T15:26:10;23.80;51.30
43697;DHT22;29301;47.620;19.560;2023-09-19T15:28:39;23.80;51.60
43697;DHT22;29301;47.620;19.560;2023-09-19T15:31:07;23.80;51.50
43697;DHT22;29301;47.620;19.560;2023-09-19T15:33:34;23.80;51.70
43697;DHT22;29301;47.620;19.560;2023-09-19T15:36:04;23.70;51.50
43697;DHT22;29301;47.620;19.560;2023-09-19T15:38:30;23.70;51.20
43697;DHT22;29301;47.620;19.560;2023-09-19T15:41:00;23.70;50.80
43697;DHT22;29301;47.620;19.560;2023-09-19T15:43:25;23.60;51.00
43697;DHT22;29301;47.620;19.560;2023-09-19T15:45:51;23.60;51.60
43697;DHT22;29301;47.620;19.560;2023-09-19T15:48:17;23.70;51.90
43697;DHT22;29301;47.620;19.560;2023-09-19T15:50:44;23.60;52.00
43697;DHT22;29301;47.620;19.560;2023-09-19T15:53:10;23.60;52.20
43697;DHT22;29301;47.620;19.560;2023-09-19T15:55:41;23.60;52.40
43697;DHT22;29301;47.620;19.560;2023-09-19T15:58:07;23.60;52.50
43697;DHT22;29301;47.620;19.560;2023-09-19T16:00:33;23.60;52.80
43697;DHT22;29301;47.620;19.560;2023-09-19T16:03:02;23.50;53.00
43697;DHT22;29301;47.620;19.560;2023-09-19T16:05:34;23.50;53.20
43697;DHT22;29301;47.620;19.560;2023-09-19T16:08:03;23.50;53.30
43697;DHT22;29301;47.620;19.560;2023-09-19T16:10:34;23.50;53.60
43697;DHT22;29301;47.620;19.560;2023-09-19T16:13:00;23.40;53.80
43697;DHT22;29301;47.620;19.560;2023-09-19T16:15:26;23.40;54.00
43697;DHT22;29301;47.620;19.560;2023-09-19T16:17:51;23.40;54.20